Time;durP1;ratioP1;P1;durP2;ratioP2;P2;SDS_P1;SDS_P2;PMS_P1;PMS_P2;Temp;Humidity;BMP_temperature;BMP_pressure;BME280_temperature;BME280_humidity;BME280_pressure;Samples;Min_cycle;Max_cycle;Signal;HPM_P1;HPM_P2
2023/02/03 00:00:06;;;;;;;65.45;60.28;;;;;;;;;;5078579;28;20955;-84
2023/02/03 00:02:34;;;;;;;70.85;65.15;;;;;;;;;;5077533;28;20765;-84
2023/02/03 00:05:01;;;;;;;57.17;53.37;;;;;;;;;;5077876;28;20222;-84
2023/02/03 00:07:29;;;;;;;54.13;50.53;;;;;;;;;;5078433;28;20433;-84
2023/02/03 00:09:56;;;;;;;58.10;53.83;;;;;;;;;;5077975;28;20195;-84
2023/02/03 00:12:23;;;;;;;61.25;55.75;;;;;;;;;;5077346;28;20225;-84
2023/02/03 00:14:50;;;;;;;52.93;49.37;;;;;;;;;;5077647;28;20241;-84
2023/02/03 00:17:17;;;;;;;54.35;50.30;;;;;;;;;;5078338;28;20453;-84
2023/02/03 00:19:45;;;;;;;56.13;51.75;;;;;;;;;;5078285;28;20746;-84
2023/02/03 00:22:12;;;;;;;54.00;50.13;;;;;;;;;;5077487;28;20207;-84
2023/02/03 00:24:39;;;;;;;56.97;52.67;;;;;;;;;;5077610;28;20538;-84
2023/02/03 00:27:06;;;;;;;58.00;53.78;;;;;;;;;;5078520;28;20420;-84
2023/02/03 00:29:33;;;;;;;53.47;49.50;;;;;;;;;;5085735;28;20218;-84
2023/02/03 00:32:00;;;;;;;55.40;50.63;;;;;;;;;;5097252;28;20227;-84
2023/02/03 00:34:29;;;;;;;56.90;52.33;;;;;;;;;;5097682;28;20671;-84
2023/02/03 00:36:57;;;;;;;48.47;44.00;;;;;;;;;;5098588;28;20437;-84
2023/02/03 00:39:24;;;;;;;48.22;44.05;;;;;;;;;;5097402;28;20464;-84
2023/02/03 00:41:51;;;;;;;42.88;39.78;;;;;;;;;;5098224;28;20206;-84
2023/02/03 00:44:18;;;;;;;45.75;42.30;;;;;;;;;;5097859;28;20202;-84
2023/02/03 00:46:45;;;;;;;52.20;47.67;;;;;;;;;;5098324;28;20198;-84
2023/02/03 00:49:12;;;;;;;43.65;40.45;;;;;;;;;;5098149;28;20222;-84
2023/02/03 00:51:39;;;;;;;50.45;46.20;;;;;;;;;;5096623;28;20610;-84
2023/02/03 00:54:08;;;;;;;48.58;44.50;;;;;;;;;;5098197;28;20206;-84
2023/02/03 00:56:35;;;;;;;50.85;47.05;;;;;;;;;;5098154;28;20828;-84
2023/02/03 00:59:02;;;;;;;42.78;39.72;;;;;;;;;;5098302;28;20296;-84
2023/02/03 01:01:29;;;;;;;52.38;48.30;;;;;;;;;;5097140;28;20210;-84
2023/02/03 01:03:56;;;;;;;53.30;48.85;;;;;;;;;;5097992;28;20663;-84
2023/02/03 01:06:23;;;;;;;39.40;36.90;;;;;;;;;;5097198;28;20230;-84
2023/02/03 01:08:50;;;;;;;54.20;49.70;;;;;;;;;;5097607;28;20488;-83
2023/02/03 01:11:19;;;;;;;51.90;47.70;;;;;;;;;;5097731;28;20471;-85
2023/02/03 01:13:47;;;;;;;48.30;44.58;;;;;;;;;;5097196;28;20517;-84
2023/02/03 01:16:15;;;;;;;52.57;47.73;;;;;;;;;;5097511;28;20237;-84
2023/02/03 01:18:43;;;;;;;51.17;47.03;;;;;;;;;;5098197;28;20473;-85
2023/02/03 01:21:11;;;;;;;56.92;52.13;;;;;;;;;;5098004;28;20440;-85
2023/02/03 01:23:38;;;;;;;55.63;50.95;;;;;;;;;;5096825;28;20291;-84
2023/02/03 01:26:05;;;;;;;42.33;39.25;;;;;;;;;;5097869;28;20229;-84
2023/02/03 01:28:33;;;;;;;48.95;44.88;;;;;;;;;;5097947;28;20247;-84
2023/02/03 01:31:09;;;;;;;47.47;43.50;;;;;;;;;;5097478;28;20266;-84
2023/02/03 01:33:39;;;;;;;48.88;44.53;;;;;;;;;;5097420;28;20406;-84
2023/02/03 01:36:06;;;;;;;50.50;46.28;;;;;;;;;;5096730;28;20321;-85
2023/02/03 01:38:33;;;;;;;39.50;36.70;;;;;;;;;;5097431;28;20202;-85
2023/02/03 01:41:00;;;;;;;46.50;42.50;;;;;;;;;;5101062;28;20427;-84
2023/02/03 01:43:31;;;;;;;39.53;36.40;;;;;;;;;;5100860;28;20476;-84
2023/02/03 01:46:00;;;;;;;46.10;41.90;;;;;;;;;;5101313;28;20492;-84
2023/02/03 01:48:27;;;;;;;47.70;43.80;;;;;;;;;;5101955;28;20900;-84
2023/02/03 01:50:55;;;;;;;36.60;33.93;;;;;;;;;;5101663;28;20544;-84
2023/02/03 01:53:22;;;;;;;42.07;38.17;;;;;;;;;;5101182;28;20457;-84
2023/02/03 01:55:50;;;;;;;41.60;38.00;;;;;;;;;;5101483;28;20529;-84
2023/02/03 01:58:19;;;;;;;38.33;35.40;;;;;;;;;;5101565;28;20445;-84
2023/02/03 02:00:46;;;;;;;43.10;39.47;;;;;;;;;;5101001;28;20541;-85
2023/02/03 02:03:15;;;;;;;39.20;35.90;;;;;;;;;;5101282;28;20221;-84
2023/02/03 02:05:46;;;;;;;34.80;32.33;;;;;;;;;;5100829;28;20500;-84
2023/02/03 02:08:16;;;;;;;42.50;38.97;;;;;;;;;;5101548;28;20447;-84
2023/02/03 02:10:44;;;;;;;43.05;39.47;;;;;;;;;;5101632;28;20210;-84
2023/02/03 02:13:12;;;;;;;40.95;37.20;;;;;;;;;;5100093;28;20205;-85
2023/02/03 02:15:43;;;;;;;46.65;40.65;;;;;;;;;;5101022;28;20249;-84
2023/02/03 02:18:24;;;;;;;39.20;36.00;;;;;;;;;;5100464;28;20201;-84
2023/02/03 02:20:58;;;;;;;35.87;32.80;;;;;;;;;;5100955;28;20437;-84
2023/02/03 02:23:37;;;;;;;45.83;41.43;;;;;;;;;;5100298;28;20454;-84
2023/02/03 02:26:34;;;;;;;43.67;39.50;;;;;;;;;;5099990;28;20483;-84
2023/02/03 02:29:12;;;;;;;34.63;31.60;;;;;;;;;;5058845;28;20466;-84
2023/02/03 02:31:53;;;;;;;40.85;37.00;;;;;;;;;;5093000;28;20458;-84
2023/02/03 02:34:23;;;;;;;37.10;34.13;;;;;;;;;;5100775;28;20182;-85
2023/02/03 02:36:55;;;;;;;32.78;29.50;;;;;;;;;;5100164;28;20203;-84
2023/02/03 02:39:25;;;;;;;30.50;28.40;;;;;;;;;;5100719;28;20186;-84
2023/02/03 02:41:54;;;;;;;31.65;29.33;;;;;;;;;;5101048;28;20179;-84
2023/02/03 02:44:24;;;;;;;30.17;27.98;;;;;;;;;;5100596;28;20206;-84
2023/02/03 02:46:54;;;;;;;31.75;28.70;;;;;;;;;;5099922;28;20347;-84
2023/02/03 02:49:23;;;;;;;35.87;32.70;;;;;;;;;;5100281;28;20221;-84
2023/02/03 02:51:51;;;;;;;39.40;35.90;;;;;;;;;;5098253;28;20456;-84
2023/02/03 02:54:21;;;;;;;34.23;31.30;;;;;;;;;;5099839;28;20512;-83
2023/02/03 02:56:50;;;;;;;37.40;33.90;;;;;;;;;;5100065;28;20937;-84
2023/02/03 02:59:16;;;;;;;35.33;32.23;;;;;;;;;;5099503;28;20718;-84
2023/02/03 03:01:43;;;;;;;25.77;24.23;;;;;;;;;;5099456;28;20443;-84
2023/02/03 03:04:15;;;;;;;28.35;26.05;;;;;;;;;;5100108;28;20494;-84
2023/02/03 03:06:44;;;;;;;29.07;26.97;;;;;;;;;;5100403;28;20256;-84
2023/02/03 03:09:12;;;;;;;30.70;28.03;;;;;;;;;;5099626;28;20480;-84
2023/02/03 03:11:42;;;;;;;34.40;31.53;;;;;;;;;;5100018;28;20452;-84
2023/02/03 03:14:11;;;;;;;29.07;26.80;;;;;;;;;;5100059;28;20525;-84
2023/02/03 03:16:39;;;;;;;30.43;27.90;;;;;;;;;;5100763;28;20465;-84
2023/02/03 03:19:07;;;;;;;27.10;25.20;;;;;;;;;;5101286;28;20490;-84
2023/02/03 03:21:37;;;;;;;25.60;23.90;;;;;;;;;;5099821;28;20210;-85
2023/02/03 03:24:09;;;;;;;33.53;30.30;;;;;;;;;;5100641;28;20444;-84
2023/02/03 03:26:36;;;;;;;24.53;22.73;;;;;;;;;;5099627;28;21000;-84
2023/02/03 03:29:07;;;;;;;30.67;27.83;;;;;;;;;;5100047;28;20668;-84
2023/02/03 03:31:34;;;;;;;27.10;25.20;;;;;;;;;;5099619;28;20781;-84
2023/02/03 03:34:01;;;;;;;31.97;29.27;;;;;;;;;;5100847;28;20479;-84
2023/02/03 03:36:30;;;;;;;31.90;29.30;;;;;;;;;;5099894;28;20468;-84
2023/02/03 03:39:02;;;;;;;28.40;26.37;;;;;;;;;;5099740;28;20442;-84
2023/02/03 03:41:35;;;;;;;29.33;27.00;;;;;;;;;;5099481;28;20400;-85
2023/02/03 03:44:04;;;;;;;28.80;26.20;;;;;;;;;;5100232;28;20428;-84
2023/02/03 03:46:34;;;;;;;24.93;23.30;;;;;;;;;;5099488;28;20480;-84
2023/02/03 03:49:02;;;;;;;29.33;27.23;;;;;;;;;;5099595;28;20473;-84
2023/02/03 03:51:31;;;;;;;26.97;24.90;;;;;;;;;;5098804;28;20435;-85
2023/02/03 03:54:02;;;;;;;27.90;25.90;;;;;;;;;;5099562;28;20426;-84
2023/02/03 03:56:47;;;;;;;29.20;26.42;;;;;;;;;;5100099;28;20475;-84
2023/02/03 03:59:14;;;;;;;25.67;23.87;;;;;;;;;;5100446;28;20190;-85
2023/02/03 04:01:42;;;;;;;23.65;21.63;;;;;;;;;;5099411;28;20444;-86
2023/02/03 04:04:10;;;;;;;24.25;22.85;;;;;;;;;;5098920;28;20267;-85
2023/02/03 04:06:38;;;;;;;25.95;24.02;;;;;;;;;;5099226;28;20267;-85
2023/02/03 04:09:07;;;;;;;23.90;22.27;;;;;;;;;;5099193;28;20225;-85
2023/02/03 04:14:28;;;;;;;24.50;22.80;;;;;;;;;;5061246;28;20429;-86
2023/02/03 04:16:55;;;;;;;28.97;26.73;;;;;;;;;;5098976;28;20423;-85
2023/02/03 04:19:22;;;;;;;26.48;24.50;;;;;;;;;;5099705;28;20414;-85
2023/02/03 04:21:49;;;;;;;26.67;24.53;;;;;;;;;;5098447;28;20207;-85
2023/02/03 04:24:18;;;;;;;23.67;22.07;;;;;;;;;;5098070;28;20422;-87
2023/02/03 04:26:45;;;;;;;26.43;24.17;;;;;;;;;;5098718;28;20464;-85
2023/02/03 04:29:12;;;;;;;27.33;25.37;;;;;;;;;;5099040;28;20475;-86
2023/02/03 04:31:39;;;;;;;28.03;25.77;;;;;;;;;;5098338;28;20453;-86
2023/02/03 04:34:06;;;;;;;23.47;21.90;;;;;;;;;;5098916;28;20433;-85
2023/02/03 04:36:33;;;;;;;28.27;25.80;;;;;;;;;;5099010;28;20472;-85
2023/02/03 04:39:00;;;;;;;23.50;21.90;;;;;;;;;;5099011;28;20439;-85
2023/02/03 04:41:29;;;;;;;26.30;24.30;;;;;;;;;;5098621;28;20970;-86
2023/02/03 04:43:56;;;;;;;23.53;22.13;;;;;;;;;;5099489;28;20452;-85
2023/02/03 04:46:23;;;;;;;41.40;34.83;;;;;;;;;;5099080;28;20435;-86
2023/02/03 04:48:50;;;;;;;46.37;34.67;;;;;;;;;;5099275;28;20451;-85
2023/02/03 04:51:17;;;;;;;29.38;26.85;;;;;;;;;;5098835;28;20459;-86
2023/02/03 04:53:44;;;;;;;24.77;22.88;;;;;;;;;;5099523;28;20183;-85
2023/02/03 04:56:11;;;;;;;30.43;27.93;;;;;;;;;;5099577;28;20274;-85
2023/02/03 04:58:39;;;;;;;36.87;33.43;;;;;;;;;;5098272;28;20419;-85
2023/02/03 05:01:07;;;;;;;33.93;29.50;;;;;;;;;;5098950;28;20435;-85
2023/02/03 05:03:34;;;;;;;30.57;28.10;;;;;;;;;;5098575;28;20468;-85
2023/02/03 05:06:02;;;;;;;28.50;26.53;;;;;;;;;;5098543;28;20454;-85
2023/02/03 05:08:29;;;;;;;25.10;23.13;;;;;;;;;;5099324;28;20496;-85
2023/02/03 05:10:56;;;;;;;25.40;23.60;;;;;;;;;;5099155;28;20563;-85
2023/02/03 05:13:23;;;;;;;22.50;21.10;;;;;;;;;;5098462;28;20445;-86
2023/02/03 05:15:51;;;;;;;24.97;23.33;;;;;;;;;;5100808;28;21106;-85
2023/02/03 05:18:18;;;;;;;26.30;24.40;;;;;;;;;;5102932;28;20427;-85
2023/02/03 05:20:45;;;;;;;25.03;23.47;;;;;;;;;;5102501;28;20879;-85
2023/02/03 05:23:12;;;;;;;24.10;22.50;;;;;;;;;;5102760;28;20445;-85
2023/02/03 05:25:39;;;;;;;24.00;22.13;;;;;;;;;;5102864;28;20223;-86
2023/02/03 05:28:06;;;;;;;28.63;25.87;;;;;;;;;;5103357;28;20474;-85
2023/02/03 05:30:33;;;;;;;27.17;25.00;;;;;;;;;;5103162;28;20459;-85
2023/02/03 05:33:01;;;;;;;22.38;21.00;;;;;;;;;;5102610;28;20919;-85
2023/02/03 05:35:28;;;;;;;26.33;23.90;;;;;;;;;;5102655;28;20243;-85
2023/02/03 05:37:55;;;;;;;25.53;23.23;;;;;;;;;;5102848;28;20788;-86
2023/02/03 05:43:07;;;;;;;24.23;22.33;;;;;;;;;;5102580;28;20408;-86
2023/02/03 05:45:35;;;;;;;27.10;23.83;;;;;;;;;;5102220;28;20567;-85
2023/02/03 05:48:06;;;;;;;26.17;24.27;;;;;;;;;;5103127;28;20436;-85
2023/02/03 05:50:33;;;;;;;25.17;23.40;;;;;;;;;;5102122;28;20451;-85
2023/02/03 05:53:00;;;;;;;23.23;21.57;;;;;;;;;;5102658;28;20436;-85
2023/02/03 05:55:27;;;;;;;24.17;22.30;;;;;;;;;;5102231;28;20526;-85
2023/02/03 05:57:54;;;;;;;26.03;24.03;;;;;;;;;;5102682;28;20423;-85
2023/02/03 06:00:22;;;;;;;23.10;20.93;;;;;;;;;;5102526;28;20419;-85
2023/02/03 06:02:51;;;;;;;23.60;22.00;;;;;;;;;;5101043;28;20450;-85
2023/02/03 06:05:20;;;;;;;21.43;20.10;;;;;;;;;;5101628;28;20457;-86
2023/02/03 06:07:47;;;;;;;23.00;21.45;;;;;;;;;;5102322;28;20845;-85
2023/02/03 06:10:14;;;;;;;21.17;19.63;;;;;;;;;;5101751;28;20222;-85
2023/02/03 06:12:41;;;;;;;23.00;21.33;;;;;;;;;;5102113;28;20456;-86
2023/02/03 06:15:09;;;;;;;23.75;22.30;;;;;;;;;;5102128;28;20488;-86
2023/02/03 06:17:36;;;;;;;26.20;24.23;;;;;;;;;;5102215;28;20210;-85
2023/02/03 06:20:04;;;;;;;26.97;25.10;;;;;;;;;;5102168;28;20823;-85
2023/02/03 06:22:32;;;;;;;22.07;20.67;;;;;;;;;;5101492;28;20448;-85
2023/02/03 06:24:59;;;;;;;24.88;23.33;;;;;;;;;;5102335;28;20447;-85
2023/02/03 06:27:26;;;;;;;24.77;23.07;;;;;;;;;;5101430;28;20218;-85
2023/02/03 06:29:53;;;;;;;23.67;22.38;;;;;;;;;;5102199;28;20502;-85
2023/02/03 06:32:20;;;;;;;26.08;24.27;;;;;;;;;;5101423;28;20208;-86
2023/02/03 06:34:47;;;;;;;25.47;23.77;;;;;;;;;;5101828;28;20636;-85
2023/02/03 06:37:16;;;;;;;28.20;26.20;;;;;;;;;;5101631;28;20452;-86
2023/02/03 06:39:44;;;;;;;26.48;24.67;;;;;;;;;;5101886;28;20467;-85
2023/02/03 06:42:11;;;;;;;26.60;25.00;;;;;;;;;;5101618;28;20256;-86
2023/02/03 06:44:38;;;;;;;28.30;26.50;;;;;;;;;;5101082;28;20450;-85
2023/02/03 06:47:05;;;;;;;27.83;25.45;;;;;;;;;;5101723;28;20497;-85
2023/02/03 06:49:32;;;;;;;27.58;25.75;;;;;;;;;;5102364;28;20263;-85
2023/02/03 06:51:59;;;;;;;30.48;27.70;;;;;;;;;;5101274;28;20201;-85
2023/02/03 06:54:26;;;;;;;28.88;27.05;;;;;;;;;;5101184;28;20243;-86
2023/02/03 06:56:54;;;;;;;29.38;27.40;;;;;;;;;;5101534;28;20283;-85
2023/02/03 06:59:21;;;;;;;29.60;27.13;;;;;;;;;;5101738;28;20203;-85
2023/02/03 07:01:48;;;;;;;28.42;26.27;;;;;;;;;;5100688;28;20423;-86
2023/02/03 07:04:15;;;;;;;27.57;26.07;;;;;;;;;;5101861;28;20218;-85
2023/02/03 07:06:42;;;;;;;27.77;25.80;;;;;;;;;;5100538;28;20473;-86
2023/02/03 07:09:09;;;;;;;30.13;28.08;;;;;;;;;;5100895;28;20452;-85
2023/02/03 07:11:36;;;;;;;34.03;31.00;;;;;;;;;;5100026;28;20225;-86
2023/02/03 07:14:05;;;;;;;33.35;30.95;;;;;;;;;;5100044;28;20498;-85
2023/02/03 07:16:33;;;;;;;30.40;28.30;;;;;;;;;;5100786;28;20222;-86
2023/02/03 07:19:00;;;;;;;31.63;29.42;;;;;;;;;;5100401;28;20206;-85
2023/02/03 07:21:27;;;;;;;32.83;30.77;;;;;;;;;;5099810;28;20214;-85
2023/02/03 07:23:54;;;;;;;35.65;32.88;;;;;;;;;;5100120;28;20565;-86
2023/02/03 07:26:21;;;;;;;36.17;33.77;;;;;;;;;;5100381;28;20222;-85
2023/02/03 07:28:49;;;;;;;30.23;28.23;;;;;;;;;;5101544;28;20431;-85
2023/02/03 07:31:17;;;;;;;32.92;30.38;;;;;;;;;;5100565;28;20271;-86
2023/02/03 07:33:44;;;;;;;33.65;31.08;;;;;;;;;;5100652;28;20197;-86
2023/02/03 07:36:11;;;;;;;38.03;34.30;;;;;;;;;;5099440;28;20237;-86
2023/02/03 07:38:38;;;;;;;32.15;29.70;;;;;;;;;;5099963;28;20861;-85
2023/02/03 07:41:05;;;;;;;33.20;30.70;;;;;;;;;;5100243;28;20202;-85
2023/02/03 07:43:32;;;;;;;35.73;33.30;;;;;;;;;;5099725;28;20202;-86
2023/02/03 07:46:00;;;;;;;31.30;29.57;;;;;;;;;;5099158;28;20459;-86
2023/02/03 07:48:28;;;;;;;38.38;35.35;;;;;;;;;;5100644;28;20476;-85
2023/02/03 07:50:55;;;;;;;37.97;35.40;;;;;;;;;;5099682;28;20222;-86
2023/02/03 07:53:22;;;;;;;35.33;33.23;;;;;;;;;;5098932;28;20451;-85
2023/02/03 07:55:49;;;;;;;38.17;35.38;;;;;;;;;;5099769;28;20456;-86
2023/02/03 07:58:16;;;;;;;37.38;34.67;;;;;;;;;;5098704;28;20680;-85
2023/02/03 08:00:43;;;;;;;42.92;40.28;;;;;;;;;;5099363;28;20213;-86
2023/02/03 08:03:10;;;;;;;47.33;44.10;;;;;;;;;;5098869;28;20217;-86
2023/02/03 08:05:39;;;;;;;42.07;39.50;;;;;;;;;;5098733;28;20226;-85
2023/02/03 08:08:06;;;;;;;42.00;38.40;;;;;;;;;;5098053;28;20527;-81
2023/02/03 08:10:33;;;;;;;43.45;40.78;;;;;;;;;;5096777;28;20484;-80
2023/02/03 08:13:00;;;;;;;45.20;42.20;;;;;;;;;;5097116;28;20204;-81
2023/02/03 08:15:27;;;;;;;47.33;44.00;;;;;;;;;;5098619;28;20457;-86
2023/02/03 08:17:54;;;;;;;44.65;41.38;;;;;;;;;;5099183;28;20430;-86
2023/02/03 08:20:21;;;;;;;45.88;42.45;;;;;;;;;;5099779;28;20203;-86
2023/02/03 08:22:49;;;;;;;47.40;44.10;;;;;;;;;;5098740;28;20214;-85
2023/02/03 08:25:16;;;;;;;43.50;40.80;;;;;;;;;;5098649;28;20223;-85
2023/02/03 08:27:43;;;;;;;43.42;40.88;;;;;;;;;;5099841;28;20448;-85
2023/02/03 08:30:13;;;;;;;44.50;41.95;;;;;;;;;;5099567;28;20271;-86
2023/02/03 08:32:40;;;;;;;44.17;41.55;;;;;;;;;;5099347;28;20202;-85
2023/02/03 08:35:08;;;;;;;42.53;40.03;;;;;;;;;;5097826;28;20245;-85
2023/02/03 08:37:35;;;;;;;47.60;44.30;;;;;;;;;;5099139;28;20213;-84
2023/02/03 08:40:04;;;;;;;47.67;44.08;;;;;;;;;;5100110;28;20252;-84
2023/02/03 08:42:32;;;;;;;44.40;41.50;;;;;;;;;;5099698;28;20236;-84
2023/02/03 08:44:59;;;;;;;44.07;41.20;;;;;;;;;;5097459;28;20226;-81
2023/02/03 08:47:26;;;;;;;45.90;43.00;;;;;;;;;;5097852;28;20432;-81
2023/02/03 08:49:53;;;;;;;40.87;38.57;;;;;;;;;;5098399;28;20210;-81
2023/02/03 08:52:20;;;;;;;43.47;40.70;;;;;;;;;;5102650;28;20483;-85
2023/02/03 08:54:47;;;;;;;40.00;37.70;;;;;;;;;;5104105;28;20229;-84
2023/02/03 08:57:16;;;;;;;42.90;40.03;;;;;;;;;;5102095;28;20193;-81
2023/02/03 08:59:43;;;;;;;44.00;40.78;;;;;;;;;;5100780;28;20669;-81
2023/02/03 09:02:14;;;;;;;40.65;38.15;;;;;;;;;;5100619;28;20202;-80
2023/02/03 09:04:41;;;;;;;42.35;39.17;;;;;;;;;;5099804;28;20225;-84
2023/02/03 09:07:08;;;;;;;39.75;37.35;;;;;;;;;;5101992;28;20726;-84
2023/02/03 09:09:35;;;;;;;43.67;40.43;;;;;;;;;;5101189;28;20267;-82
2023/02/03 09:12:04;;;;;;;41.47;38.40;;;;;;;;;;5100790;28;20553;-81
2023/02/03 09:14:32;;;;;;;43.40;40.47;;;;;;;;;;5100585;28;20251;-80
2023/02/03 09:17:00;;;;;;;37.95;35.75;;;;;;;;;;5100334;28;20254;-80
2023/02/03 09:19:27;;;;;;;39.50;36.85;;;;;;;;;;5100117;28;20210;-81
2023/02/03 09:21:56;;;;;;;36.70;34.40;;;;;;;;;;5100073;28;20206;-82
2023/02/03 09:24:23;;;;;;;40.05;37.30;;;;;;;;;;5100524;28;20199;-81
2023/02/03 09:26:50;;;;;;;40.13;37.28;;;;;;;;;;5100771;28;20206;-81
2023/02/03 09:29:17;;;;;;;38.05;35.60;;;;;;;;;;5100652;28;20221;-81
2023/02/03 09:31:47;;;;;;;36.22;34.05;;;;;;;;;;5099598;28;20211;-82
2023/02/03 09:34:14;;;;;;;40.30;37.92;;;;;;;;;;5100859;28;20232;-81
2023/02/03 09:36:41;;;;;;;43.10;40.40;;;;;;;;;;5100494;28;20214;-81
2023/02/03 09:39:08;;;;;;;44.30;40.80;;;;;;;;;;5100737;28;20240;-82
2023/02/03 09:41:56;;;;;;;45.30;42.70;;;;;;;;;;5099330;28;20514;-82
2023/02/03 09:44:24;;;;;;;39.47;37.08;;;;;;;;;;5100543;28;20244;-86
2023/02/03 09:46:56;;;;;;;38.45;35.95;;;;;;;;;;5099912;28;20656;-81
2023/02/03 09:49:24;;;;;;;36.80;34.53;;;;;;;;;;5101350;28;20190;-81
2023/02/03 09:51:53;;;;;;;38.60;35.55;;;;;;;;;;5099723;28;20222;-81
2023/02/03 09:54:22;;;;;;;37.13;34.93;;;;;;;;;;5100360;28;20307;-81
2023/02/03 09:56:51;;;;;;;43.95;40.53;;;;;;;;;;5101341;28;20423;-83
2023/02/03 09:59:18;;;;;;;38.33;35.38;;;;;;;;;;5100525;28;20444;-81
2023/02/03 10:01:49;;;;;;;41.30;38.77;;;;;;;;;;5098264;28;20207;-82
2023/02/03 10:04:26;;;;;;;36.00;34.00;;;;;;;;;;5099825;28;20974;-82
2023/02/03 10:06:59;;;;;;;37.47;34.93;;;;;;;;;;5099796;28;20990;-81
2023/02/03 10:09:30;;;;;;;33.80;31.47;;;;;;;;;;5100926;28;20408;-81
2023/02/03 10:12:10;;;;;;;34.42;31.02;;;;;;;;;;5099430;28;20944;-82
2023/02/03 10:14:44;;;;;;;33.90;31.73;;;;;;;;;;5100184;28;20226;-81
2023/02/03 10:17:19;;;;;;;31.93;29.67;;;;;;;;;;5100471;28;20526;-81
2023/02/03 10:19:50;;;;;;;30.00;28.10;;;;;;;;;;5100559;28;20473;-81
2023/02/03 10:22:19;;;;;;;31.00;29.00;;;;;;;;;;5099975;28;20456;-82
2023/02/03 10:24:48;;;;;;;34.17;31.67;;;;;;;;;;5100093;28;20981;-81
2023/02/03 10:27:17;;;;;;;33.53;31.30;;;;;;;;;;5098468;28;20856;-79
2023/02/03 10:29:44;;;;;;;35.38;32.78;;;;;;;;;;5096080;28;20505;-78
2023/02/03 10:32:11;;;;;;;31.30;29.27;;;;;;;;;;5097964;28;20207;-81
2023/02/03 10:34:39;;;;;;;32.80;30.70;;;;;;;;;;5098795;28;20443;-80
2023/02/03 10:37:12;;;;;;;33.13;31.13;;;;;;;;;;5098773;28;20458;-81
2023/02/03 10:39:41;;;;;;;32.53;30.60;;;;;;;;;;5099549;28;20248;-81
2023/02/03 10:42:09;;;;;;;32.83;30.83;;;;;;;;;;5100082;28;20818;-85
2023/02/03 10:44:38;;;;;;;29.57;27.57;;;;;;;;;;5099911;28;20434;-81
2023/02/03 10:47:22;;;;;;;29.77;28.17;;;;;;;;;;5093986;28;20444;-85
2023/02/03 10:50:04;;;;;;;30.67;28.60;;;;;;;;;;5088766;28;20461;-85
2023/02/03 10:52:33;;;;;;;32.28;29.88;;;;;;;;;;5098730;28;20213;-85
2023/02/03 10:55:01;;;;;;;30.63;28.10;;;;;;;;;;5079831;28;20707;-85
2023/02/03 10:57:30;;;;;;;37.42;33.97;;;;;;;;;;5080480;28;20531;-85
2023/02/03 11:00:06;;;;;;;31.50;29.50;;;;;;;;;;5080475;28;20211;-83
2023/02/03 11:02:33;;;;;;;28.50;26.77;;;;;;;;;;5080733;28;20730;-83
2023/02/03 11:05:10;;;;;;;29.43;27.63;;;;;;;;;;5080815;28;20452;-85
2023/02/03 11:07:39;;;;;;;35.45;32.47;;;;;;;;;;5080092;28;20424;-83
2023/02/03 11:10:26;;;;;;;35.00;32.08;;;;;;;;;;5081585;28;20617;-86
2023/02/03 11:12:53;;;;;;;33.43;31.13;;;;;;;;;;5078561;28;20229;-85
2023/02/03 11:15:20;;;;;;;29.10;27.40;;;;;;;;;;5078801;28;20459;-85
2023/02/03 11:17:47;;;;;;;31.33;28.58;;;;;;;;;;5079679;28;20456;-84
2023/02/03 11:20:15;;;;;;;32.47;30.17;;;;;;;;;;5084470;28;20195;-82
2023/02/03 11:22:43;;;;;;;29.58;27.88;;;;;;;;;;5098099;28;20203;-82
2023/02/03 11:25:17;;;;;;;29.67;27.65;;;;;;;;;;5098386;28;20222;-81
2023/02/03 11:27:45;;;;;;;34.93;32.53;;;;;;;;;;5098088;28;20211;-81
2023/02/03 11:30:16;;;;;;;48.03;44.63;;;;;;;;;;5098926;28;20460;-81
2023/02/03 11:32:43;;;;;;;47.53;43.83;;;;;;;;;;5097722;28;20958;-80
2023/02/03 11:35:15;;;;;;;48.20;44.87;;;;;;;;;;5099104;28;20442;-81
2023/02/03 11:37:45;;;;;;;53.17;49.30;;;;;;;;;;5098112;28;20439;-80
2023/02/03 11:40:23;;;;;;;52.70;49.03;;;;;;;;;;5098525;28;20490;-81
2023/02/03 11:43:00;;;;;;;48.50;45.50;;;;;;;;;;5098130;28;20406;-80
2023/02/03 11:45:28;;;;;;;48.10;45.27;;;;;;;;;;5098278;28;20861;-81
2023/02/03 11:47:56;;;;;;;52.90;48.97;;;;;;;;;;5098407;28;20430;-81
2023/02/03 11:50:28;;;;;;;48.20;45.30;;;;;;;;;;5098246;28;20447;-80
2023/02/03 11:53:02;;;;;;;51.27;47.43;;;;;;;;;;5097492;28;20476;-81
2023/02/03 11:55:36;;;;;;;49.83;46.60;;;;;;;;;;5097770;28;20459;-81
2023/02/03 11:58:10;;;;;;;49.42;45.97;;;;;;;;;;5098237;28;20426;-81
2023/02/03 12:00:43;;;;;;;47.03;43.83;;;;;;;;;;5097977;28;20235;-80
2023/02/03 12:03:28;;;;;;;50.53;47.17;;;;;;;;;;5097171;28;20498;-82
2023/02/03 12:06:01;;;;;;;47.23;43.90;;;;;;;;;;5098803;28;20447;-82
2023/02/03 12:08:35;;;;;;;48.67;45.43;;;;;;;;;;5098622;28;20787;-80
2023/02/03 12:11:08;;;;;;;45.10;41.53;;;;;;;;;;5099049;28;20422;-82
2023/02/03 12:13:40;;;;;;;46.73;43.00;;;;;;;;;;5099287;28;20432;-81
2023/02/03 12:16:19;;;;;;;44.63;40.87;;;;;;;;;;5098070;28;20872;-81
2023/02/03 12:18:52;;;;;;;42.73;39.90;;;;;;;;;;5098111;28;20420;-82
2023/02/03 12:21:33;;;;;;;40.63;38.23;;;;;;;;;;5097692;28;20429;-81
2023/02/03 12:24:06;;;;;;;43.27;39.67;;;;;;;;;;5099154;28;20524;-82
2023/02/03 12:26:37;;;;;;;40.07;37.20;;;;;;;;;;5097823;28;20492;-81
2023/02/03 12:29:06;;;;;;;36.15;34.08;;;;;;;;;;5099029;28;20406;-81
2023/02/03 12:31:35;;;;;;;36.17;33.40;;;;;;;;;;5093466;28;20750;-82
2023/02/03 12:34:06;;;;;;;34.20;31.50;;;;;;;;;;5078099;28;20817;-81
2023/02/03 12:36:36;;;;;;;29.17;26.70;;;;;;;;;;5077441;28;20770;-82
2023/02/03 12:39:08;;;;;;;27.73;25.40;;;;;;;;;;5078052;28;20455;-81
2023/02/03 12:41:36;;;;;;;26.40;24.23;;;;;;;;;;5078067;28;20789;-81
2023/02/03 12:44:05;;;;;;;29.00;26.30;;;;;;;;;;5079285;28;20766;-81
2023/02/03 12:46:36;;;;;;;24.33;22.87;;;;;;;;;;5078428;28;20468;-81
2023/02/03 12:49:06;;;;;;;26.40;24.63;;;;;;;;;;5076743;28;20469;-81
2023/02/03 12:51:36;;;;;;;28.60;25.83;;;;;;;;;;5077275;28;20516;-81
2023/02/03 12:54:09;;;;;;;28.00;25.77;;;;;;;;;;5077558;28;20427;-82
2023/02/03 12:56:39;;;;;;;26.43;24.60;;;;;;;;;;5077571;28;20434;-81
2023/02/03 12:59:12;;;;;;;29.42;26.80;;;;;;;;;;5077680;28;20765;-81
2023/02/03 13:01:43;;;;;;;27.30;25.13;;;;;;;;;;5076141;28;20227;-81
2023/02/03 13:04:13;;;;;;;27.33;24.93;;;;;;;;;;5077395;28;20511;-81
2023/02/03 13:06:43;;;;;;;25.63;23.87;;;;;;;;;;5077893;28;20430;-80
2023/02/03 13:09:21;;;;;;;32.72;24.35;;;;;;;;;;5078310;28;20441;-81
2023/02/03 13:11:52;;;;;;;26.77;24.60;;;;;;;;;;5076401;28;20233;-80
2023/02/03 13:14:22;;;;;;;27.13;24.60;;;;;;;;;;5077512;28;20444;-80
2023/02/03 13:16:51;;;;;;;29.37;26.50;;;;;;;;;;5078064;28;20405;-81
2023/02/03 13:19:21;;;;;;;28.23;25.30;;;;;;;;;;5078114;28;20476;-81
2023/02/03 13:21:48;;;;;;;27.90;25.10;;;;;;;;;;5079785;28;20499;-86
2023/02/03 13:24:17;;;;;;;26.67;24.50;;;;;;;;;;5079469;28;20536;-85
2023/02/03 13:26:54;;;;;;;26.53;24.37;;;;;;;;;;5080436;28;20522;-85
2023/02/03 13:29:28;;;;;;;26.90;24.40;;;;;;;;;;5076942;28;20407;-81
2023/02/03 13:32:04;;;;;;;24.92;22.23;;;;;;;;;;5075937;28;20970;-80
2023/02/03 13:34:44;;;;;;;25.33;23.30;;;;;;;;;;5077060;28;20221;-84
2023/02/03 13:37:17;;;;;;;29.97;26.97;;;;;;;;;;5078800;28;20504;-80
2023/02/03 13:39:53;;;;;;;26.63;23.97;;;;;;;;;;5081084;28;21098;-80
2023/02/03 13:42:22;;;;;;;27.73;25.33;;;;;;;;;;5080164;28;20447;-80
2023/02/03 13:44:51;;;;;;;27.00;23.90;;;;;;;;;;5080075;28;20469;-79
2023/02/03 13:47:19;;;;;;;24.73;22.43;;;;;;;;;;5079641;28;20540;-80
2023/02/03 13:49:49;;;;;;;27.03;23.57;;;;;;;;;;5080311;28;20437;-80
2023/02/03 13:52:24;;;;;;;25.53;22.87;;;;;;;;;;5080698;28;20469;-80
2023/02/03 13:54:53;;;;;;;23.10;21.20;;;;;;;;;;5079628;28;20821;-80
2023/02/03 13:57:21;;;;;;;25.43;23.20;;;;;;;;;;5080706;28;20446;-81
2023/02/03 13:59:49;;;;;;;23.83;21.95;;;;;;;;;;5080241;28;20472;-87
2023/02/03 14:02:41;;;;;;;23.73;21.57;;;;;;;;;;5079237;28;20204;-88
2023/02/03 14:05:10;;;;;;;29.63;22.77;;;;;;;;;;5079278;28;20846;-88
2023/02/03 14:07:37;;;;;;;31.43;22.70;;;;;;;;;;5079304;28;20793;-88
2023/02/03 14:10:14;;;;;;;24.20;21.87;;;;;;;;;;5079427;28;20440;-81
2023/02/03 14:12:55;;;;;;;23.63;21.53;;;;;;;;;;5084138;28;20496;-85
2023/02/03 14:15:33;;;;;;;24.70;22.03;;;;;;;;;;5082525;28;20973;-82
2023/02/03 14:18:21;;;;;;;23.17;21.27;;;;;;;;;;5084146;28;20419;-82
2023/02/03 14:20:54;;;;;;;23.33;21.50;;;;;;;;;;5082247;28;20497;-82
2023/02/03 14:23:25;;;;;;;25.30;21.93;;;;;;;;;;5082392;28;20446;-82
2023/02/03 14:25:55;;;;;;;24.50;22.00;;;;;;;;;;5082433;28;20507;-81
2023/02/03 14:28:24;;;;;;;30.20;23.03;;;;;;;;;;5083008;28;21008;-81
2023/02/03 14:31:09;;;;;;;27.08;23.85;;;;;;;;;;5082549;28;20540;-82
2023/02/03 14:33:54;;;;;;;23.73;21.33;;;;;;;;;;5100102;28;20219;-82